| Station | Date | Time | Temp (°F) | RH (%) | Dew Pt (°F) | Wind Dir (°) | Wind Spd (mph) | Wind Gust (mph) | Solar Rad (W/m2) | Pressure (mb) | Daily Min Temp (°F) | Daily Max Temp (°F) | Daily Max Wind (mph) | Daily Rain (In) | Yest MinT (°F) | Yest MaxT (°F) | Yest MaxGst (mph) | Yest Precip (In) | MinBV Day (V) |
|---|---|---|---|---|---|---|---|---|---|---|---|---|---|---|---|---|---|---|---|
| MWA Office | 5/2/26 | 1400 | 85.6 1.8 | 12 3 | 26.2 4.1 | ESE | 112 | 3.3 0.8 | 12.3 2.8 | 854 88 | 1,007.1 1.7 | 47.8 0.1 | 87.4 3.0 | 15.1 0.0 | 0.00 | 47.7 | 86.0 | 15.1 | 0.00 | 12.4 0.0 |
| MWA OPS | 5/2/26 | 1400 | 83.1 1.3 | 16 0 | 32.7 1.4 | SW | 214 | 13.0 8.3 | 23.9 10.1 | 880 95 | 1,007.1 1.0 | 47.8 1.9 | 84.4 1.9 | 23.9 10.1 | 0.00 | 49.7 | 85.2 | 20.0 | 0.00 | 12.8 0.0 |
| LV-PS | 5/2/26 | 1400 | 82.8 0.6 | 12 3 | 25.0 5.3 | ENE | 68 | 8.5 1.4 | 17.5 2.8 | 919 53 | 1,007.1 0.7 | 48.4 6.9 | 84.3 1.1 | 23.9 5.5 | 0.00 | 55.3 | 84.2 | 18.4 | 0.00 | 12.8 0.0 |
| JV-PS | 5/2/26 | 1400 | 83.9 2.3 | 10 5 | 22.4 7.9 | E | 86 | 11.8 6.3 | 21.9 8.8 | 850 103 | 1,007.0 0.8 | 51.6 9.1 | 84.9 1.5 | 33.3 14.5 | 0.00 | 60.7 | 84.5 | 26.5 | 0.00 | 12.9 0.0 |
| BDVWA | 5/2/26 | 1400 | 79.6 0.8 | 12 7 | 22.5 10.9 | E | 100 | 7.0 2.0 | 15.6 1.8 | 908 94 | 1,007.5 0.1 | 57.6 5.2 | 80.6 0.2 | 20.2 0.0 | 0.00 | 61.1 | 81.0 | 20.2 | 0.00 | 12.9 0.0 |
| Newberry Springs | 5/2/26 | 1400 | 89.9 3.3 | 11 4 | 27.8 5.8 | ENE | 75 | 9.1 3.9 | 17.8 0.0 | 960 28 | 1,007.7 1.1 | 55.1 5.4 | 91.2 4.0 | 24.1 4.2 | 0.00 | 60.6 | 88.8 | 20.0 | 0.00 | 12.9 0.0 |
| Pinon Hills | 5/2/26 | 1330 | 74.3 2.1 | 19 3 | 29.1 1.7 | SE | 131 | 7.0 2.9 | 16.4 5.5 | 927 59 | 1,007.4 1.2 | 54.8 6.0 | 75.0 1.8 | 26.3 9.6 | 0.00 | 48.8 | 76.8 | 16.7 | 0.00 | 12.9 0.0 |
| Helendale | 5/2/26 | 1400 | 86.9 2.2 | 15 3 | 33.1 2.5 | SSW | 196 | 8.3 3.3 | 17.5 6.4 | 868 65 | 1,006.6 1.4 | 48.3 5.8 | 87.9 2.5 | 22.6 6.8 | 0.00 | 54.0 | 86.9 | 16.2 | 0.00 | 12.7 0.0 |
| Lenwood | 5/2/26 | 1400 | 87.9 3.2 | 10 6 | 23.4 8.7 | E | 100 | 8.4 4.0 | 18.4 7.7 | 894 83 | 1,006.9 1.4 | 47.4 4.5 | 88.3 2.1 | 26.3 10.5 | 0.00 | 51.8 | 88.3 | 20.6 | 0.00 | 0.3 12.5 |
| Oak Hills | 5/2/26 | 1400 | 77.6 1.1 | 21 2 | 34.6 3.4 | S | 175 | 7.4 2.3 | 22.1 8.1 | 897 87 | 1,007.4 0.5 | 51.8 1.6 | 78.0 0.9 | 22.1 7.9 | 0.00 | 50.2 | 78.0 | 16.7 | 0.00 | 12.9 0.0 |
| Pipes Wash Canyon | 5/2/26 | 1400 | 77.0 4.6 | 12 5 | 21.1 5.0 | SE | 138 | 2.3 0.7 | 12.7 3.5 | 966 707 | 1,006.6 1.2 | 54.8 5.1 | 79.2 3.8 | 32.2 14.0 | 0.00 | 58.0 | 77.8 | 18.2 | 0.00 | 12.8 0.0 |
| Max | 89.9 | 21 | 34.6 | - | 13.0 | 23.9 | 966 | 1,007.7 | 57.6 | 91.2 | 33.3 | 0.00 | 61.1 | 88.8 | 26.5 | 0.00 | 12.9 | ||
| Avg | 82.6 | 14 | 27.1 | - | 7.8 | 17.8 | 902 | 1,007.1 | - | - | - | - | - | - | - | - | - | ||
| Min | 74.3 | 10 | 21.1 | - | 2.3 | 12.3 | 850 | 1,006.6 | 47.4 | 75.0 | 15.1 | 0.00 | 47.7 | 76.8 | 15.1 | 0.00 | 0.3 |
| Station | Date | Time | Latest Rain (In) | Daily Rain (In) | Yest Precip (In) | Month Precip (In) | Season Precip (In) | Daily ETo (in) | Yest ETo (In) | 7 Day ETo (in) |
|---|---|---|---|---|---|---|---|---|---|---|
| MWA Office | 5/2/26 | 1400 | 0.00 | 0.00 | 0.00 | 0.00 | 4.30 | 0.121 | 0.23 | 1.44 |
| MWA OPS | 5/2/26 | 1400 | 0.00 | 0.00 | 0.00 | 0.00 | 9.32 | 0.123 | 0.24 | 1.45 |
| LV-PS | 5/2/26 | 1400 | 0.00 | 0.00 | 0.00 | 0.00 | 3.63 | 0.150 | 0.26 | 1.60 |
| JV-PS | 5/2/26 | 1400 | 0.00 | 0.00 | 0.00 | 0.00 | 6.38 | 0.142 | 0.29 | 1.59 |
| BDVWA | 5/2/26 | 1400 | 0.00 | 0.00 | 0.00 | 0.00 | 6.35 | 0.145 | 0.29 | 1.60 |
| Newberry Springs | 5/2/26 | 1400 | 0.00 | 0.00 | 0.00 | 0.00 | 2.70 | 0.135 | 0.29 | 1.84 |
| Pinon Hills | 5/2/26 | 1330 | 0.00 | 0.00 | 0.00 | 0.00 | 15.51 | 0.133 | 0.24 | 1.33 |
| Helendale | 5/2/26 | 1400 | 0.00 | 0.00 | 0.00 | 0.00 | 5.55 | 0.122 | 0.26 | 1.61 |
| Lenwood | 5/2/26 | 1400 | 0.00 | 0.00 | 0.00 | 0.00 | 4.24 | 0.146 | 0.25 | 1.62 |
| Oak Hills | 5/2/26 | 1400 | 0.00 | 0.00 | 0.00 | 0.00 | 14.72 | 0.126 | 0.24 | 1.27 |
| Pipes Wash Canyon | 5/2/26 | 1400 | 0.00 | 0.00 | 0.00 | 0.00 | 13.92 | 0.139 | 0.22 | 1.44 |
| Max | 0.00 | 0.00 | 0.00 | 0.00 | 15.51 | 0.150 | 0.29 | 1.84 | ||
| Avg | 0.00 | - | - | - | - | - | - | - | ||
| Min | 0.00 | 0.00 | 0.00 | 0.00 | 2.70 | 0.121 | 0.22 | 1.27 |